sensor_id;sensor_type;location;lat;lon;timestamp;P1;durP1;ratioP1;P2;durP2;ratioP2
39256;SDS011;67272;48.066;11.038;2023-04-03T00:01:04;7.60;;;6.07;;
39256;SDS011;67272;48.066;11.038;2023-04-03T00:03:33;5.67;;;5.07;;
39256;SDS011;67272;48.066;11.038;2023-04-03T00:06:00;6.80;;;5.80;;
39256;SDS011;67272;48.066;11.038;2023-04-03T00:08:30;7.63;;;5.57;;
39256;SDS011;67272;48.066;11.038;2023-04-03T00:10:58;7.40;;;6.10;;
39256;SDS011;67272;48.066;11.038;2023-04-03T00:13:24;5.97;;;5.07;;
39256;SDS011;67272;48.066;11.038;2023-04-03T00:15:51;7.93;;;7.00;;
39256;SDS011;67272;48.066;11.038;2023-04-03T00:18:17;7.87;;;6.17;;
39256;SDS011;67272;48.066;11.038;2023-04-03T00:20:43;9.03;;;6.10;;
39256;SDS011;67272;48.066;11.038;2023-04-03T00:23:12;6.90;;;5.70;;
39256;SDS011;67272;48.066;11.038;2023-04-03T00:25:39;7.07;;;6.37;;
39256;SDS011;67272;48.066;11.038;2023-04-03T00:28:05;7.07;;;5.40;;
39256;SDS011;67272;48.066;11.038;2023-04-03T00:30:34;6.50;;;5.30;;
39256;SDS011;67272;48.066;11.038;2023-04-03T00:33:04;8.10;;;5.37;;
39256;SDS011;67272;48.066;11.038;2023-04-03T00:35:34;9.40;;;5.97;;
39256;SDS011;67272;48.066;11.038;2023-04-03T00:38:00;6.47;;;5.73;;
39256;SDS011;67272;48.066;11.038;2023-04-03T00:40:34;6.80;;;5.20;;
39256;SDS011;67272;48.066;11.038;2023-04-03T00:43:00;7.27;;;5.87;;
39256;SDS011;67272;48.066;11.038;2023-04-03T00:45:38;6.70;;;5.53;;
39256;SDS011;67272;48.066;11.038;2023-04-03T00:48:13;6.70;;;5.67;;
39256;SDS011;67272;48.066;11.038;2023-04-03T00:50:44;6.47;;;5.57;;
39256;SDS011;67272;48.066;11.038;2023-04-03T00:53:15;7.03;;;5.73;;
39256;SDS011;67272;48.066;11.038;2023-04-03T00:55:46;6.80;;;5.40;;
39256;SDS011;67272;48.066;11.038;2023-04-03T00:58:12;7.67;;;5.60;;
39256;SDS011;67272;48.066;11.038;2023-04-03T01:00:42;7.67;;;5.67;;
39256;SDS011;67272;48.066;11.038;2023-04-03T01:03:16;7.30;;;5.60;;
39256;SDS011;67272;48.066;11.038;2023-04-03T01:05:46;7.27;;;5.53;;
39256;SDS011;67272;48.066;11.038;2023-04-03T01:08:15;7.00;;;5.90;;
39256;SDS011;67272;48.066;11.038;2023-04-03T01:10:42;7.20;;;5.97;;
39256;SDS011;67272;48.066;11.038;2023-04-03T01:13:25;7.20;;;5.37;;
39256;SDS011;67272;48.066;11.038;2023-04-03T01:15:52;6.60;;;5.47;;
39256;SDS011;67272;48.066;11.038;2023-04-03T01:18:25;8.87;;;6.37;;
39256;SDS011;67272;48.066;11.038;2023-04-03T01:23:23;7.87;;;5.80;;
39256;SDS011;67272;48.066;11.038;2023-04-03T01:25:57;6.87;;;5.60;;
39256;SDS011;67272;48.066;11.038;2023-04-03T01:28:31;6.33;;;5.70;;
39256;SDS011;67272;48.066;11.038;2023-04-03T01:33:44;7.97;;;5.80;;
39256;SDS011;67272;48.066;11.038;2023-04-03T01:36:13;6.67;;;5.47;;
39256;SDS011;67272;48.066;11.038;2023-04-03T01:38:40;6.57;;;5.33;;
39256;SDS011;67272;48.066;11.038;2023-04-03T01:41:06;8.43;;;5.90;;
39256;SDS011;67272;48.066;11.038;2023-04-03T01:43:42;6.17;;;5.23;;
39256;SDS011;67272;48.066;11.038;2023-04-03T01:46:11;6.60;;;5.23;;
39256;SDS011;67272;48.066;11.038;2023-04-03T01:48:37;5.77;;;5.07;;
39256;SDS011;67272;48.066;11.038;2023-04-03T01:51:07;7.60;;;5.03;;
39256;SDS011;67272;48.066;11.038;2023-04-03T01:53:34;5.97;;;4.93;;
39256;SDS011;67272;48.066;11.038;2023-04-03T01:56:00;5.87;;;5.13;;
39256;SDS011;67272;48.066;11.038;2023-04-03T01:58:28;6.10;;;5.20;;
39256;SDS011;67272;48.066;11.038;2023-04-03T02:00:54;5.90;;;4.77;;
39256;SDS011;67272;48.066;11.038;2023-04-03T02:03:21;5.90;;;5.20;;
39256;SDS011;67272;48.066;11.038;2023-04-03T02:05:50;5.43;;;4.90;;
39256;SDS011;67272;48.066;11.038;2023-04-03T02:08:16;5.60;;;4.57;;
39256;SDS011;67272;48.066;11.038;2023-04-03T02:10:48;5.13;;;4.63;;
39256;SDS011;67272;48.066;11.038;2023-04-03T02:13:16;4.90;;;4.37;;
39256;SDS011;67272;48.066;11.038;2023-04-03T02:15:49;4.30;;;3.87;;
39256;SDS011;67272;48.066;11.038;2023-04-03T02:18:16;4.53;;;3.83;;
39256;SDS011;67272;48.066;11.038;2023-04-03T02:20:42;3.97;;;3.57;;
39256;SDS011;67272;48.066;11.038;2023-04-03T02:23:13;4.60;;;3.97;;
39256;SDS011;67272;48.066;11.038;2023-04-03T02:25:39;4.13;;;3.73;;
39256;SDS011;67272;48.066;11.038;2023-04-03T02:28:05;5.30;;;4.13;;
39256;SDS011;67272;48.066;11.038;2023-04-03T02:30:32;4.60;;;3.90;;
39256;SDS011;67272;48.066;11.038;2023-04-03T02:32:58;4.07;;;3.67;;
39256;SDS011;67272;48.066;11.038;2023-04-03T02:35:27;3.63;;;3.23;;
39256;SDS011;67272;48.066;11.038;2023-04-03T02:37:56;5.90;;;4.10;;
39256;SDS011;67272;48.066;11.038;2023-04-03T02:40:31;3.80;;;2.97;;
39256;SDS011;67272;48.066;11.038;2023-04-03T02:42:58;3.87;;;3.33;;
39256;SDS011;67272;48.066;11.038;2023-04-03T02:45:27;4.00;;;3.60;;
39256;SDS011;67272;48.066;11.038;2023-04-03T02:47:54;4.13;;;3.73;;
39256;SDS011;67272;48.066;11.038;2023-04-03T02:50:20;4.40;;;3.40;;
39256;SDS011;67272;48.066;11.038;2023-04-03T02:52:46;4.73;;;3.60;;
39256;SDS011;67272;48.066;11.038;2023-04-03T02:55:14;4.13;;;3.73;;
39256;SDS011;67272;48.066;11.038;2023-04-03T02:57:42;4.70;;;3.80;;
39256;SDS011;67272;48.066;11.038;2023-04-03T03:00:09;4.87;;;3.50;;
39256;SDS011;67272;48.066;11.038;2023-04-03T03:02:35;4.67;;;4.20;;
39256;SDS011;67272;48.066;11.038;2023-04-03T03:05:02;13.40;;;10.60;;
39256;SDS011;67272;48.066;11.038;2023-04-03T03:07:31;14.33;;;10.10;;
39256;SDS011;67272;48.066;11.038;2023-04-03T03:10:01;13.37;;;8.10;;
39256;SDS011;67272;48.066;11.038;2023-04-03T03:12:27;57.57;;;33.27;;
39256;SDS011;67272;48.066;11.038;2023-04-03T03:14:55;102.33;;;54.57;;
39256;SDS011;67272;48.066;11.038;2023-04-03T03:17:24;21.63;;;13.67;;
39256;SDS011;67272;48.066;11.038;2023-04-03T03:19:50;11.87;;;7.63;;
39256;SDS011;67272;48.066;11.038;2023-04-03T03:22:19;31.03;;;17.87;;
39256;SDS011;67272;48.066;11.038;2023-04-03T03:24:46;39.47;;;21.73;;
39256;SDS011;67272;48.066;11.038;2023-04-03T03:27:13;13.90;;;10.50;;
39256;SDS011;67272;48.066;11.038;2023-04-03T03:29:41;11.07;;;8.67;;
39256;SDS011;67272;48.066;11.038;2023-04-03T03:32:11;6.00;;;4.20;;
39256;SDS011;67272;48.066;11.038;2023-04-03T03:34:41;5.10;;;4.23;;
39256;SDS011;67272;48.066;11.038;2023-04-03T03:37:10;11.97;;;10.73;;
39256;SDS011;67272;48.066;11.038;2023-04-03T03:39:37;13.73;;;11.87;;
39256;SDS011;67272;48.066;11.038;2023-04-03T03:42:10;10.87;;;9.77;;
39256;SDS011;67272;48.066;11.038;2023-04-03T03:44:37;4.60;;;4.13;;
39256;SDS011;67272;48.066;11.038;2023-04-03T03:47:06;5.67;;;4.37;;
39256;SDS011;67272;48.066;11.038;2023-04-03T03:49:38;5.93;;;5.33;;
39256;SDS011;67272;48.066;11.038;2023-04-03T03:52:04;4.73;;;4.07;;
39256;SDS011;67272;48.066;11.038;2023-04-03T03:54:36;7.73;;;6.70;;
39256;SDS011;67272;48.066;11.038;2023-04-03T03:57:05;4.37;;;3.97;;
39256;SDS011;67272;48.066;11.038;2023-04-03T03:59:35;4.00;;;3.47;;
39256;SDS011;67272;48.066;11.038;2023-04-03T04:02:01;4.20;;;3.80;;
39256;SDS011;67272;48.066;11.038;2023-04-03T04:04:31;5.13;;;4.13;;
39256;SDS011;67272;48.066;11.038;2023-04-03T04:06:57;4.53;;;3.83;;
39256;SDS011;67272;48.066;11.038;2023-04-03T04:09:26;3.63;;;3.33;;
39256;SDS011;67272;48.066;11.038;2023-04-03T04:11:53;3.73;;;3.43;;
39256;SDS011;67272;48.066;11.038;2023-04-03T04:14:19;5.00;;;4.43;;
39256;SDS011;67272;48.066;11.038;2023-04-03T04:16:49;3.50;;;3.20;;
39256;SDS011;67272;48.066;11.038;2023-04-03T04:19:20;4.60;;;4.20;;
39256;SDS011;67272;48.066;11.038;2023-04-03T04:21:53;4.53;;;3.57;;
39256;SDS011;67272;48.066;11.038;2023-04-03T04:24:25;4.37;;;3.57;;
39256;SDS011;67272;48.066;11.038;2023-04-03T04:26:55;3.90;;;3.50;;
39256;SDS011;67272;48.066;11.038;2023-04-03T04:29:25;4.33;;;3.80;;
39256;SDS011;67272;48.066;11.038;2023-04-03T04:31:52;4.20;;;3.80;;
39256;SDS011;67272;48.066;11.038;2023-04-03T04:34:30;4.60;;;3.97;;
39256;SDS011;67272;48.066;11.038;2023-04-03T04:36:57;4.33;;;3.83;;
39256;SDS011;67272;48.066;11.038;2023-04-03T04:39:25;4.83;;;3.80;;
39256;SDS011;67272;48.066;11.038;2023-04-03T04:41:54;4.20;;;3.50;;
39256;SDS011;67272;48.066;11.038;2023-04-03T04:44:21;3.60;;;3.30;;
39256;SDS011;67272;48.066;11.038;2023-04-03T04:46:48;4.67;;;3.50;;
39256;SDS011;67272;48.066;11.038;2023-04-03T04:49:15;4.70;;;3.53;;
39256;SDS011;67272;48.066;11.038;2023-04-03T04:51:41;5.37;;;3.70;;
39256;SDS011;67272;48.066;11.038;2023-04-03T04:54:09;4.90;;;4.00;;
39256;SDS011;67272;48.066;11.038;2023-04-03T04:56:36;4.07;;;3.43;;
39256;SDS011;67272;48.066;11.038;2023-04-03T04:59:03;5.50;;;3.63;;
39256;SDS011;67272;48.066;11.038;2023-04-03T05:01:29;4.27;;;3.87;;
39256;SDS011;67272;48.066;11.038;2023-04-03T05:04:04;3.53;;;3.23;;
39256;SDS011;67272;48.066;11.038;2023-04-03T05:06:31;4.43;;;3.67;;
39256;SDS011;67272;48.066;11.038;2023-04-03T05:08:59;6.63;;;3.93;;
39256;SDS011;67272;48.066;11.038;2023-04-03T05:11:26;3.37;;;3.07;;
39256;SDS011;67272;48.066;11.038;2023-04-03T05:13:55;3.77;;;3.33;;
39256;SDS011;67272;48.066;11.038;2023-04-03T05:16:23;4.37;;;3.37;;
39256;SDS011;67272;48.066;11.038;2023-04-03T05:18:51;4.10;;;3.70;;
39256;SDS011;67272;48.066;11.038;2023-04-03T05:21:23;5.43;;;4.93;;
39256;SDS011;67272;48.066;11.038;2023-04-03T05:23:51;4.93;;;3.53;;
39256;SDS011;67272;48.066;11.038;2023-04-03T05:26:18;3.83;;;3.47;;
39256;SDS011;67272;48.066;11.038;2023-04-03T05:28:47;3.57;;;3.27;;
39256;SDS011;67272;48.066;11.038;2023-04-03T05:31:14;4.77;;;3.60;;
39256;SDS011;67272;48.066;11.038;2023-04-03T05:33:41;4.10;;;3.57;;
39256;SDS011;67272;48.066;11.038;2023-04-03T05:36:12;5.93;;;3.80;;
39256;SDS011;67272;48.066;11.038;2023-04-03T05:38:43;3.97;;;3.57;;
39256;SDS011;67272;48.066;11.038;2023-04-03T05:41:09;4.20;;;3.40;;
39256;SDS011;67272;48.066;11.038;2023-04-03T05:43:35;3.80;;;3.17;;
39256;SDS011;67272;48.066;11.038;2023-04-03T05:46:08;5.77;;;3.33;;
39256;SDS011;67272;48.066;11.038;2023-04-03T05:48:35;4.40;;;3.60;;
39256;SDS011;67272;48.066;11.038;2023-04-03T05:51:02;3.90;;;3.50;;
39256;SDS011;67272;48.066;11.038;2023-04-03T05:53:29;5.80;;;4.03;;
39256;SDS011;67272;48.066;11.038;2023-04-03T05:56:00;4.33;;;3.67;;
39256;SDS011;67272;48.066;11.038;2023-04-03T05:58:33;5.20;;;3.70;;
39256;SDS011;67272;48.066;11.038;2023-04-03T06:01:00;3.33;;;2.97;;
39256;SDS011;67272;48.066;11.038;2023-04-03T06:03:26;4.00;;;3.40;;
39256;SDS011;67272;48.066;11.038;2023-04-03T06:05:53;4.73;;;3.37;;
39256;SDS011;67272;48.066;11.038;2023-04-03T06:08:19;4.97;;;3.83;;
39256;SDS011;67272;48.066;11.038;2023-04-03T06:10:45;4.23;;;3.80;;
39256;SDS011;67272;48.066;11.038;2023-04-03T06:13:13;4.20;;;3.80;;
39256;SDS011;67272;48.066;11.038;2023-04-03T06:15:39;4.30;;;3.90;;
39256;SDS011;67272;48.066;11.038;2023-04-03T06:18:07;4.88;;;4.38;;
39256;SDS011;67272;48.066;11.038;2023-04-03T06:20:34;5.27;;;3.97;;
39256;SDS011;67272;48.066;11.038;2023-04-03T06:23:01;4.90;;;4.10;;
39256;SDS011;67272;48.066;11.038;2023-04-03T06:25:27;4.33;;;3.83;;
39256;SDS011;67272;48.066;11.038;2023-04-03T06:27:53;4.67;;;4.13;;
39256;SDS011;67272;48.066;11.038;2023-04-03T06:30:21;4.50;;;3.50;;
39256;SDS011;67272;48.066;11.038;2023-04-03T06:32:47;4.27;;;3.87;;
39256;SDS011;67272;48.066;11.038;2023-04-03T06:35:14;4.20;;;3.73;;
39256;SDS011;67272;48.066;11.038;2023-04-03T06:37:40;4.40;;;3.70;;
39256;SDS011;67272;48.066;11.038;2023-04-03T06:40:06;2.93;;;2.67;;
39256;SDS011;67272;48.066;11.038;2023-04-03T06:42:33;4.00;;;3.10;;
39256;SDS011;67272;48.066;11.038;2023-04-03T06:45:07;5.37;;;3.67;;
39256;SDS011;67272;48.066;11.038;2023-04-03T06:47:34;4.80;;;3.90;;
39256;SDS011;67272;48.066;11.038;2023-04-03T06:50:00;4.33;;;3.93;;
39256;SDS011;67272;48.066;11.038;2023-04-03T06:52:26;4.87;;;3.97;;
39256;SDS011;67272;48.066;11.038;2023-04-03T06:54:53;4.63;;;4.13;;
39256;SDS011;67272;48.066;11.038;2023-04-03T06:57:22;6.40;;;3.70;;
39256;SDS011;67272;48.066;11.038;2023-04-03T06:59:49;4.63;;;4.10;;
39256;SDS011;67272;48.066;11.038;2023-04-03T07:02:16;4.43;;;3.87;;
39256;SDS011;67272;48.066;11.038;2023-04-03T07:04:43;4.77;;;3.77;;
39256;SDS011;67272;48.066;11.038;2023-04-03T07:07:09;4.33;;;3.33;;
39256;SDS011;67272;48.066;11.038;2023-04-03T07:09:35;4.43;;;3.43;;
39256;SDS011;67272;48.066;11.038;2023-04-03T07:12:02;3.70;;;3.30;;
39256;SDS011;67272;48.066;11.038;2023-04-03T07:14:28;4.83;;;3.47;;
39256;SDS011;67272;48.066;11.038;2023-04-03T07:16:55;4.10;;;3.60;;
39256;SDS011;67272;48.066;11.038;2023-04-03T07:19:21;5.77;;;4.00;;
39256;SDS011;67272;48.066;11.038;2023-04-03T07:21:49;4.17;;;3.77;;
39256;SDS011;67272;48.066;11.038;2023-04-03T07:24:15;5.07;;;3.97;;
39256;SDS011;67272;48.066;11.038;2023-04-03T07:26:41;4.00;;;3.27;;
39256;SDS011;67272;48.066;11.038;2023-04-03T07:29:10;4.47;;;3.67;;
39256;SDS011;67272;48.066;11.038;2023-04-03T07:31:38;4.13;;;3.73;;
39256;SDS011;67272;48.066;11.038;2023-04-03T07:34:08;4.30;;;3.67;;
39256;SDS011;67272;48.066;11.038;2023-04-03T07:36:41;3.70;;;3.40;;
39256;SDS011;67272;48.066;11.038;2023-04-03T07:39:07;4.23;;;3.50;;
39256;SDS011;67272;48.066;11.038;2023-04-03T07:41:36;3.97;;;2.93;;
39256;SDS011;67272;48.066;11.038;2023-04-03T07:44:03;3.67;;;2.90;;
39256;SDS011;67272;48.066;11.038;2023-04-03T07:46:30;4.00;;;3.37;;
39256;SDS011;67272;48.066;11.038;2023-04-03T07:48:57;4.20;;;3.50;;
39256;SDS011;67272;48.066;11.038;2023-04-03T07:51:26;3.57;;;3.27;;
39256;SDS011;67272;48.066;11.038;2023-04-03T07:53:54;4.40;;;3.80;;
39256;SDS011;67272;48.066;11.038;2023-04-03T07:56:27;3.80;;;3.17;;
39256;SDS011;67272;48.066;11.038;2023-04-03T07:58:53;3.70;;;3.23;;
39256;SDS011;67272;48.066;11.038;2023-04-03T08:01:20;3.57;;;3.27;;
39256;SDS011;67272;48.066;11.038;2023-04-03T08:03:49;3.03;;;2.77;;
39256;SDS011;67272;48.066;11.038;2023-04-03T08:06:16;3.57;;;3.00;;
39256;SDS011;67272;48.066;11.038;2023-04-03T08:08:42;6.20;;;3.43;;
39256;SDS011;67272;48.066;11.038;2023-04-03T08:11:09;5.27;;;3.03;;
39256;SDS011;67272;48.066;11.038;2023-04-03T08:13:35;6.33;;;3.67;;
39256;SDS011;67272;48.066;11.038;2023-04-03T08:16:12;4.13;;;3.57;;
39256;SDS011;67272;48.066;11.038;2023-04-03T08:18:38;3.67;;;3.00;;
39256;SDS011;67272;48.066;11.038;2023-04-03T08:21:08;4.40;;;4.00;;
39256;SDS011;67272;48.066;11.038;2023-04-03T08:23:36;4.17;;;3.30;;
39256;SDS011;67272;48.066;11.038;2023-04-03T08:26:16;4.37;;;3.60;;
39256;SDS011;67272;48.066;11.038;2023-04-03T08:28:45;3.60;;;3.07;;
39256;SDS011;67272;48.066;11.038;2023-04-03T08:31:14;3.00;;;2.63;;
39256;SDS011;67272;48.066;11.038;2023-04-03T08:33:41;4.30;;;3.60;;
39256;SDS011;67272;48.066;11.038;2023-04-03T08:36:21;3.33;;;3.03;;
39256;SDS011;67272;48.066;11.038;2023-04-03T08:38:48;3.97;;;3.43;;
39256;SDS011;67272;48.066;11.038;2023-04-03T08:41:29;4.10;;;3.70;;
39256;SDS011;67272;48.066;11.038;2023-04-03T08:49:22;2.90;;;2.70;;
39256;SDS011;67272;48.066;11.038;2023-04-03T08:51:50;3.77;;;3.20;;
39256;SDS011;67272;48.066;11.038;2023-04-03T08:54:28;3.57;;;3.27;;
39256;SDS011;67272;48.066;11.038;2023-04-03T08:57:04;3.40;;;3.10;;
39256;SDS011;67272;48.066;11.038;2023-04-03T08:59:35;3.77;;;3.40;;
39256;SDS011;67272;48.066;11.038;2023-04-03T09:02:21;4.00;;;3.40;;
39256;SDS011;67272;48.066;11.038;2023-04-03T09:04:49;3.57;;;3.20;;
39256;SDS011;67272;48.066;11.038;2023-04-03T09:07:20;3.37;;;3.07;;
39256;SDS011;67272;48.066;11.038;2023-04-03T09:09:48;3.60;;;3.30;;
39256;SDS011;67272;48.066;11.038;2023-04-03T09:12:23;3.85;;;3.53;;
39256;SDS011;67272;48.066;11.038;2023-04-03T09:17:34;4.50;;;3.33;;
39256;SDS011;67272;48.066;11.038;2023-04-03T09:22:46;3.83;;;2.70;;
39256;SDS011;67272;48.066;11.038;2023-04-03T09:25:15;3.30;;;3.00;;
39256;SDS011;67272;48.066;11.038;2023-04-03T09:27:41;4.40;;;3.20;;
39256;SDS011;67272;48.066;11.038;2023-04-03T09:30:13;3.27;;;3.03;;
39256;SDS011;67272;48.066;11.038;2023-04-03T09:32:39;3.30;;;3.00;;
39256;SDS011;67272;48.066;11.038;2023-04-03T09:38:00;3.30;;;3.00;;
39256;SDS011;67272;48.066;11.038;2023-04-03T09:42:54;4.20;;;3.47;;
39256;SDS011;67272;48.066;11.038;2023-04-03T09:45:32;4.70;;;3.40;;
39256;SDS011;67272;48.066;11.038;2023-04-03T09:50:32;2.80;;;2.60;;
39256;SDS011;67272;48.066;11.038;2023-04-03T09:52:58;3.17;;;2.90;;
39256;SDS011;67272;48.066;11.038;2023-04-03T09:55:25;3.33;;;2.80;;
39256;SDS011;67272;48.066;11.038;2023-04-03T09:57:55;3.80;;;3.23;;
39256;SDS011;67272;48.066;11.038;2023-04-03T10:02:53;3.37;;;3.07;;
39256;SDS011;67272;48.066;11.038;2023-04-03T10:05:34;4.63;;;2.40;;
39256;SDS011;67272;48.066;11.038;2023-04-03T10:10:42;3.17;;;2.70;;
39256;SDS011;67272;48.066;11.038;2023-04-03T10:13:18;3.80;;;2.90;;
39256;SDS011;67272;48.066;11.038;2023-04-03T10:15:56;3.40;;;2.97;;
39256;SDS011;67272;48.066;11.038;2023-04-03T10:20:57;3.63;;;3.33;;
39256;SDS011;67272;48.066;11.038;2023-04-03T10:23:33;2.33;;;2.17;;
39256;SDS011;67272;48.066;11.038;2023-04-03T10:28:37;3.53;;;3.20;;
39256;SDS011;67272;48.066;11.038;2023-04-03T10:31:13;3.33;;;2.90;;
39256;SDS011;67272;48.066;11.038;2023-04-03T10:41:14;3.40;;;3.10;;
39256;SDS011;67272;48.066;11.038;2023-04-03T10:44:06;2.93;;;2.73;;
39256;SDS011;67272;48.066;11.038;2023-04-03T10:46:32;3.23;;;3.03;;
39256;SDS011;67272;48.066;11.038;2023-04-03T10:51:47;5.50;;;3.13;;
39256;SDS011;67272;48.066;11.038;2023-04-03T10:59:29;2.47;;;2.27;;
39256;SDS011;67272;48.066;11.038;2023-04-03T11:01:57;2.83;;;2.63;;
39256;SDS011;67272;48.066;11.038;2023-04-03T11:04:26;3.80;;;2.40;;
39256;SDS011;67272;48.066;11.038;2023-04-03T11:06:57;3.93;;;2.87;;
39256;SDS011;67272;48.066;11.038;2023-04-03T11:09:27;2.40;;;2.20;;
39256;SDS011;67272;48.066;11.038;2023-04-03T11:12:00;2.27;;;2.07;;
39256;SDS011;67272;48.066;11.038;2023-04-03T11:14:29;3.27;;;2.63;;
39256;SDS011;67272;48.066;11.038;2023-04-03T11:22:03;3.43;;;2.83;;
39256;SDS011;67272;48.066;11.038;2023-04-03T11:24:36;3.67;;;3.20;;
39256;SDS011;67272;48.066;11.038;2023-04-03T11:27:03;3.17;;;2.90;;
39256;SDS011;67272;48.066;11.038;2023-04-03T11:29:37;3.97;;;3.57;;
39256;SDS011;67272;48.066;11.038;2023-04-03T11:32:21;3.33;;;3.03;;
39256;SDS011;67272;48.066;11.038;2023-04-03T11:34:52;3.80;;;3.40;;
39256;SDS011;67272;48.066;11.038;2023-04-03T11:37:27;4.50;;;3.30;;
39256;SDS011;67272;48.066;11.038;2023-04-03T11:39:58;3.70;;;3.30;;
39256;SDS011;67272;48.066;11.038;2023-04-03T11:42:29;4.70;;;3.40;;
39256;SDS011;67272;48.066;11.038;2023-04-03T11:47:47;4.50;;;2.87;;
39256;SDS011;67272;48.066;11.038;2023-04-03T12:03:29;3.40;;;3.10;;
39256;SDS011;67272;48.066;11.038;2023-04-03T12:13:35;3.70;;;3.40;;
39256;SDS011;67272;48.066;11.038;2023-04-03T12:16:02;4.20;;;3.60;;
39256;SDS011;67272;48.066;11.038;2023-04-03T12:21:13;4.03;;;3.23;;
39256;SDS011;67272;48.066;11.038;2023-04-03T12:24:03;3.63;;;3.30;;
39256;SDS011;67272;48.066;11.038;2023-04-03T12:31:48;3.03;;;2.70;;
39256;SDS011;67272;48.066;11.038;2023-04-03T12:39:25;5.07;;;3.00;;
39256;SDS011;67272;48.066;11.038;2023-04-03T12:42:16;3.40;;;3.03;;
39256;SDS011;67272;48.066;11.038;2023-04-03T12:45:45;3.30;;;3.00;;
39256;SDS011;67272;48.066;11.038;2023-04-03T12:47:39;3.70;;;2.43;;
39256;SDS011;67272;48.066;11.038;2023-04-03T12:50:18;2.80;;;2.60;;
39256;SDS011;67272;48.066;11.038;2023-04-03T12:55:24;2.57;;;2.30;;
39256;SDS011;67272;48.066;11.038;2023-04-03T12:57:51;2.20;;;2.00;;
39256;SDS011;67272;48.066;11.038;2023-04-03T13:02:48;3.10;;;2.37;;
39256;SDS011;67272;48.066;11.038;2023-04-03T13:05:15;4.13;;;2.50;;
39256;SDS011;67272;48.066;11.038;2023-04-03T13:07:43;3.23;;;2.93;;
39256;SDS011;67272;48.066;11.038;2023-04-03T13:10:14;4.37;;;2.60;;
39256;SDS011;67272;48.066;11.038;2023-04-03T13:12:52;2.50;;;2.30;;
39256;SDS011;67272;48.066;11.038;2023-04-03T13:17:52;3.30;;;2.33;;
39256;SDS011;67272;48.066;11.038;2023-04-03T13:20:20;3.23;;;2.33;;
39256;SDS011;67272;48.066;11.038;2023-04-03T13:22:49;2.50;;;2.30;;
39256;SDS011;67272;48.066;11.038;2023-04-03T13:25:16;2.97;;;2.30;;
39256;SDS011;67272;48.066;11.038;2023-04-03T13:27:43;2.27;;;2.00;;
39256;SDS011;67272;48.066;11.038;2023-04-03T13:30:27;2.10;;;1.90;;
39256;SDS011;67272;48.066;11.038;2023-04-03T13:32:55;2.50;;;2.30;;
39256;SDS011;67272;48.066;11.038;2023-04-03T13:35:26;2.40;;;2.20;;
39256;SDS011;67272;48.066;11.038;2023-04-03T13:37:53;3.43;;;2.30;;
39256;SDS011;67272;48.066;11.038;2023-04-03T13:40:20;3.80;;;2.30;;
39256;SDS011;67272;48.066;11.038;2023-04-03T13:42:48;2.80;;;2.20;;
39256;SDS011;67272;48.066;11.038;2023-04-03T13:45:34;2.72;;;2.30;;
39256;SDS011;67272;48.066;11.038;2023-04-03T13:48:19;3.30;;;2.30;;
39256;SDS011;67272;48.066;11.038;2023-04-03T13:51:01;2.43;;;2.23;;
39256;SDS011;67272;48.066;11.038;2023-04-03T13:53:30;3.20;;;2.33;;
39256;SDS011;67272;48.066;11.038;2023-04-03T13:55:59;1.50;;;1.40;;
39256;SDS011;67272;48.066;11.038;2023-04-03T13:58:27;2.20;;;2.00;;
39256;SDS011;67272;48.066;11.038;2023-04-03T14:06:05;2.73;;;2.53;;
39256;SDS011;67272;48.066;11.038;2023-04-03T14:08:32;2.90;;;2.70;;
39256;SDS011;67272;48.066;11.038;2023-04-03T14:11:01;2.40;;;2.20;;
39256;SDS011;67272;48.066;11.038;2023-04-03T14:13:29;2.03;;;1.90;;
39256;SDS011;67272;48.066;11.038;2023-04-03T14:15:55;2.10;;;2.00;;
39256;SDS011;67272;48.066;11.038;2023-04-03T14:18:25;2.50;;;2.10;;
39256;SDS011;67272;48.066;11.038;2023-04-03T14:20:55;3.40;;;1.73;;
39256;SDS011;67272;48.066;11.038;2023-04-03T14:23:24;2.10;;;1.90;;
39256;SDS011;67272;48.066;11.038;2023-04-03T14:25:51;2.00;;;1.80;;
39256;SDS011;67272;48.066;11.038;2023-04-03T14:28:19;1.73;;;1.63;;
39256;SDS011;67272;48.066;11.038;2023-04-03T14:30:50;4.00;;;1.80;;
39256;SDS011;67272;48.066;11.038;2023-04-03T14:33:17;1.90;;;1.80;;
39256;SDS011;67272;48.066;11.038;2023-04-03T14:35:48;2.20;;;2.00;;
39256;SDS011;67272;48.066;11.038;2023-04-03T14:38:22;2.63;;;2.00;;
39256;SDS011;67272;48.066;11.038;2023-04-03T14:40:54;2.30;;;2.10;;
39256;SDS011;67272;48.066;11.038;2023-04-03T14:43:21;2.10;;;1.90;;
39256;SDS011;67272;48.066;11.038;2023-04-03T14:45:49;3.77;;;2.10;;
39256;SDS011;67272;48.066;11.038;2023-04-03T14:48:20;1.60;;;1.50;;
39256;SDS011;67272;48.066;11.038;2023-04-03T14:50:50;2.20;;;2.00;;
39256;SDS011;67272;48.066;11.038;2023-04-03T14:53:17;1.63;;;1.53;;
39256;SDS011;67272;48.066;11.038;2023-04-03T14:55:47;2.10;;;1.77;;
39256;SDS011;67272;48.066;11.038;2023-04-03T14:58:15;1.70;;;1.60;;
39256;SDS011;67272;48.066;11.038;2023-04-03T15:00:42;3.20;;;1.60;;
39256;SDS011;67272;48.066;11.038;2023-04-03T15:03:20;1.90;;;1.80;;
39256;SDS011;67272;48.066;11.038;2023-04-03T15:05:47;2.33;;;1.60;;
39256;SDS011;67272;48.066;11.038;2023-04-03T15:08:21;2.33;;;1.83;;
39256;SDS011;67272;48.066;11.038;2023-04-03T15:10:48;2.60;;;2.10;;
39256;SDS011;67272;48.066;11.038;2023-04-03T15:13:15;1.93;;;1.60;;
39256;SDS011;67272;48.066;11.038;2023-04-03T15:15:41;3.70;;;2.80;;
39256;SDS011;67272;48.066;11.038;2023-04-03T15:18:15;3.30;;;2.30;;
39256;SDS011;67272;48.066;11.038;2023-04-03T15:20:42;2.80;;;2.10;;
39256;SDS011;67272;48.066;11.038;2023-04-03T15:23:09;2.23;;;1.93;;
39256;SDS011;67272;48.066;11.038;2023-04-03T15:25:36;2.13;;;1.80;;
39256;SDS011;67272;48.066;11.038;2023-04-03T15:28:02;2.13;;;1.80;;
39256;SDS011;67272;48.066;11.038;2023-04-03T15:30:28;1.70;;;1.60;;
39256;SDS011;67272;48.066;11.038;2023-04-03T15:32:54;2.60;;;1.67;;
39256;SDS011;67272;48.066;11.038;2023-04-03T15:35:21;2.20;;;1.50;;
39256;SDS011;67272;48.066;11.038;2023-04-03T15:37:47;1.83;;;1.63;;
39256;SDS011;67272;48.066;11.038;2023-04-03T15:40:16;2.30;;;2.10;;
39256;SDS011;67272;48.066;11.038;2023-04-03T15:42:46;1.90;;;1.70;;
39256;SDS011;67272;48.066;11.038;2023-04-03T15:45:18;1.75;;;1.63;;
39256;SDS011;67272;48.066;11.038;2023-04-03T15:47:47;2.50;;;1.87;;
39256;SDS011;67272;48.066;11.038;2023-04-03T15:50:14;1.77;;;1.57;;
39256;SDS011;67272;48.066;11.038;2023-04-03T15:52:40;1.73;;;1.63;;
39256;SDS011;67272;48.066;11.038;2023-04-03T15:55:07;2.53;;;1.60;;
39256;SDS011;67272;48.066;11.038;2023-04-03T15:57:33;1.80;;;1.70;;
39256;SDS011;67272;48.066;11.038;2023-04-03T16:00:02;1.63;;;1.53;;
39256;SDS011;67272;48.066;11.038;2023-04-03T16:02:32;2.80;;;2.03;;
39256;SDS011;67272;48.066;11.038;2023-04-03T16:04:58;2.20;;;1.50;;
39256;SDS011;67272;48.066;11.038;2023-04-03T16:07:25;2.03;;;1.50;;
39256;SDS011;67272;48.066;11.038;2023-04-03T16:09:57;1.87;;;1.50;;
39256;SDS011;67272;48.066;11.038;2023-04-03T16:12:23;1.93;;;1.73;;
39256;SDS011;67272;48.066;11.038;2023-04-03T16:14:50;2.13;;;1.87;;
39256;SDS011;67272;48.066;11.038;2023-04-03T16:17:16;3.07;;;1.33;;
39256;SDS011;67272;48.066;11.038;2023-04-03T16:19:53;3.63;;;2.75;;
39256;SDS011;67272;48.066;11.038;2023-04-03T16:22:21;2.67;;;1.80;;
39256;SDS011;67272;48.066;11.038;2023-04-03T16:24:47;1.93;;;1.40;;
39256;SDS011;67272;48.066;11.038;2023-04-03T16:27:15;1.60;;;1.33;;
39256;SDS011;67272;48.066;11.038;2023-04-03T16:29:41;1.40;;;1.20;;